createdAt,value
2022-11-30T00:01:35.775Z,1.40
2022-11-30T00:04:08.751Z,1.55
2022-11-30T00:06:35.485Z,1.02
2022-11-30T00:09:02.235Z,1.20
2022-11-30T00:11:29.760Z,1.08
2022-11-30T00:13:56.927Z,1.00
2022-11-30T00:16:23.931Z,1.20
2022-11-30T00:18:51.103Z,0.90
2022-11-30T00:21:37.801Z,1.15
2022-11-30T00:24:05.709Z,1.20
2022-11-30T00:26:32.501Z,1.35
2022-11-30T00:29:06.479Z,1.45
2022-11-30T00:31:35.413Z,1.10
2022-11-30T00:34:02.178Z,1.23
2022-11-30T00:36:29.041Z,1.10
2022-11-30T00:38:55.894Z,1.10
2022-11-30T00:41:29.797Z,1.73
2022-11-30T00:43:56.603Z,2.35
2022-11-30T00:46:23.416Z,1.70
2022-11-30T00:48:50.198Z,2.00
2022-11-30T00:51:17.651Z,1.58
2022-11-30T00:53:44.461Z,1.63
2022-11-30T00:56:11.525Z,1.38
2022-11-30T00:58:38.440Z,1.20
2022-11-30T01:01:05.662Z,1.40
2022-11-30T01:03:33.570Z,1.15
2022-11-30T01:06:08.717Z,1.23
2022-11-30T01:08:35.658Z,1.02
2022-11-30T01:11:15.061Z,0.95
2022-11-30T01:13:41.953Z,1.27
2022-11-30T01:16:10.986Z,1.00
2022-11-30T01:18:38.897Z,1.40
2022-11-30T01:21:07.541Z,1.15
2022-11-30T01:23:34.401Z,1.30
2022-11-30T01:26:01.289Z,1.13
2022-11-30T01:28:28.204Z,1.08
2022-11-30T01:31:08.036Z,1.17
2022-11-30T01:33:35.733Z,1.48
2022-11-30T01:36:14.302Z,1.20
2022-11-30T01:38:46.450Z,1.27
2022-11-30T01:41:18.217Z,1.23
2022-11-30T01:43:50.118Z,1.42
2022-11-30T01:46:23.590Z,1.20
2022-11-30T01:49:07.615Z,1.02
2022-11-30T01:51:45.348Z,1.42
2022-11-30T01:54:14.988Z,1.10
2022-11-30T01:57:05.933Z,1.20
2022-11-30T01:59:32.882Z,1.13
2022-11-30T02:01:59.699Z,1.02
2022-11-30T02:04:35.428Z,1.23
2022-11-30T02:07:04.369Z,1.38
2022-11-30T02:09:34.311Z,1.40
2022-11-30T02:12:04.089Z,1.63
2022-11-30T02:14:42.088Z,2.00
2022-11-30T02:17:30.196Z,1.70
2022-11-30T02:20:29.196Z,1.98
2022-11-30T02:23:08.116Z,1.60
2022-11-30T02:25:45.080Z,1.55
2022-11-30T02:28:33.972Z,1.45
2022-11-30T02:31:03.247Z,1.33
2022-11-30T02:33:33.132Z,1.27
2022-11-30T02:36:01.739Z,1.10
2022-11-30T02:38:29.348Z,1.35
2022-11-30T02:40:56.135Z,1.10
2022-11-30T02:43:26.621Z,1.15
2022-11-30T02:46:16.108Z,0.90
2022-11-30T02:48:43.535Z,1.23
2022-11-30T02:51:13.941Z,0.80
2022-11-30T02:53:41.579Z,0.93
2022-11-30T02:56:08.742Z,0.90
2022-11-30T02:58:35.940Z,1.00
2022-11-30T03:01:02.733Z,0.93
2022-11-30T03:03:29.473Z,1.00
2022-11-30T03:05:56.251Z,1.00
2022-11-30T03:08:23.060Z,1.25
2022-11-30T03:10:49.882Z,1.20
2022-11-30T03:13:16.655Z,0.93
2022-11-30T03:15:43.554Z,1.30
2022-11-30T03:18:10.394Z,1.05
2022-11-30T03:20:43.991Z,0.95
2022-11-30T03:23:10.998Z,0.77
2022-11-30T03:25:37.750Z,1.13
2022-11-30T03:28:04.937Z,0.75
2022-11-30T03:30:31.943Z,1.35
2022-11-30T03:32:58.714Z,1.27
2022-11-30T03:35:25.447Z,1.00
2022-11-30T03:37:52.225Z,1.52
2022-11-30T03:40:19.069Z,1.20
2022-11-30T03:42:45.869Z,1.20
2022-11-30T03:45:12.616Z,1.00
2022-11-30T03:47:39.400Z,0.73
2022-11-30T03:50:06.951Z,1.20
2022-11-30T03:52:33.713Z,1.00
2022-11-30T03:55:00.494Z,1.30
2022-11-30T03:57:27.388Z,0.98
2022-11-30T03:59:54.167Z,1.23
2022-11-30T04:02:20.944Z,0.90
2022-11-30T04:04:47.898Z,1.10
2022-11-30T04:07:14.913Z,1.05
2022-11-30T04:09:41.702Z,1.00
2022-11-30T04:12:08.491Z,1.10
2022-11-30T04:14:35.254Z,1.27
2022-11-30T04:17:02.085Z,1.35
2022-11-30T04:19:28.921Z,1.20
2022-11-30T04:21:55.675Z,1.55
2022-11-30T04:24:22.493Z,1.20
2022-11-30T04:26:49.241Z,1.27
2022-11-30T04:29:16.081Z,1.00
2022-11-30T04:31:42.861Z,1.02
2022-11-30T04:34:10.039Z,1.38
2022-11-30T04:36:36.825Z,1.50
2022-11-30T04:39:03.708Z,1.70
2022-11-30T04:41:30.466Z,1.60
2022-11-30T04:43:57.502Z,1.40
2022-11-30T04:46:24.353Z,1.25
2022-11-30T04:48:51.103Z,1.40
2022-11-30T04:51:17.855Z,1.13
2022-11-30T04:53:44.615Z,1.15
2022-11-30T04:56:12.050Z,1.35
2022-11-30T04:58:39.894Z,1.30
2022-11-30T05:01:07.378Z,2.10
2022-11-30T05:03:34.235Z,1.60
2022-11-30T05:06:01.089Z,2.08
2022-11-30T05:08:27.995Z,1.88
2022-11-30T05:10:55.577Z,1.42
2022-11-30T05:13:24.119Z,1.40
2022-11-30T05:15:51.011Z,1.98
2022-11-30T05:18:17.863Z,2.20
2022-11-30T05:20:51.974Z,2.63
2022-11-30T05:23:20.191Z,2.70
2022-11-30T05:25:47.752Z,2.67
2022-11-30T05:28:14.647Z,1.70
2022-11-30T05:30:42.903Z,1.90
2022-11-30T05:33:10.264Z,2.13
2022-11-30T05:35:37.999Z,1.88
2022-11-30T05:38:05.063Z,1.70
2022-11-30T05:40:33.574Z,1.48
2022-11-30T05:43:02.029Z,1.63
2022-11-30T05:45:29.862Z,1.48
2022-11-30T05:47:56.612Z,1.30
2022-11-30T05:50:23.392Z,1.48
2022-11-30T05:52:55.116Z,1.20
2022-11-30T05:55:22.995Z,1.38
2022-11-30T05:57:49.830Z,1.40
2022-11-30T06:00:17.160Z,1.25
2022-11-30T06:02:44.119Z,1.35
2022-11-30T06:05:10.941Z,1.35
2022-11-30T06:07:37.853Z,1.13
2022-11-30T06:10:05.557Z,1.10
2022-11-30T06:12:32.426Z,1.27
2022-11-30T06:14:59.246Z,1.05
2022-11-30T06:17:26.013Z,0.80
2022-11-30T06:19:52.783Z,1.13
2022-11-30T06:22:19.568Z,1.08
2022-11-30T06:24:46.455Z,1.50
2022-11-30T06:27:13.433Z,1.90
2022-11-30T06:29:40.256Z,2.47
2022-11-30T06:32:08.137Z,1.55
2022-11-30T06:34:34.853Z,2.30
2022-11-30T06:37:01.657Z,1.33
2022-11-30T06:39:57.885Z,1.30
2022-11-30T06:42:15.239Z,1.50
2022-11-30T06:44:41.997Z,1.77
2022-11-30T06:47:08.736Z,1.50
2022-11-30T06:49:35.640Z,1.27
2022-11-30T06:52:02.451Z,1.08
2022-11-30T06:54:29.256Z,1.23
2022-11-30T06:56:57.432Z,1.00
2022-11-30T06:59:24.419Z,1.20
2022-11-30T07:01:51.417Z,1.00
2022-11-30T07:04:18.387Z,1.00
2022-11-30T07:06:45.146Z,1.00
2022-11-30T07:09:13.232Z,0.95
2022-11-30T07:11:40.318Z,0.90
2022-11-30T07:14:07.123Z,1.33
2022-11-30T07:16:34.008Z,1.10
2022-11-30T07:19:00.829Z,1.13
2022-11-30T07:21:27.648Z,1.42
2022-11-30T07:24:12.942Z,1.42
2022-11-30T07:26:39.902Z,1.00
2022-11-30T07:29:06.917Z,1.75
2022-11-30T07:31:37.015Z,0.75
2022-11-30T07:34:07.079Z,1.08
2022-11-30T07:36:35.157Z,0.85
2022-11-30T07:39:02.685Z,1.13
2022-11-30T07:41:29.916Z,0.95
2022-11-30T07:43:56.667Z,0.93
2022-11-30T07:46:23.646Z,1.10
2022-11-30T07:48:50.473Z,1.00
2022-11-30T07:51:20.030Z,1.20
2022-11-30T07:53:47.246Z,1.38
2022-11-30T07:56:16.350Z,1.40
2022-11-30T07:58:43.823Z,1.52
2022-11-30T08:01:13.708Z,1.38
2022-11-30T08:03:40.903Z,1.20
2022-11-30T08:09:34.510Z,1.20
2022-11-30T08:12:01.269Z,1.25
2022-11-30T08:14:28.053Z,1.20
2022-11-30T08:16:55.070Z,1.52
2022-11-30T08:19:21.897Z,1.10
2022-11-30T08:21:48.666Z,1.58
2022-11-30T08:24:16.024Z,1.40
2022-11-30T08:26:42.942Z,1.40
2022-11-30T08:29:11.284Z,1.25
2022-11-30T08:31:38.286Z,1.38
2022-11-30T08:34:08.311Z,1.45
2022-11-30T08:36:35.248Z,1.42
2022-11-30T08:39:05.060Z,1.33
2022-11-30T08:41:32.679Z,1.40
2022-11-30T08:43:59.550Z,1.67
2022-11-30T08:52:17.400Z,1.75
2022-11-30T08:54:47.027Z,2.90
2022-11-30T08:57:15.826Z,2.83
2022-11-30T08:59:42.640Z,2.38
2022-11-30T09:02:17.941Z,2.88
2022-11-30T09:04:47.550Z,2.40
2022-11-30T09:07:14.697Z,2.65
2022-11-30T09:09:41.666Z,2.25
2022-11-30T09:12:08.781Z,2.97
2022-11-30T09:14:35.579Z,2.88
2022-11-30T09:17:02.515Z,2.50
2022-11-30T09:19:29.517Z,2.92
2022-11-30T09:21:56.258Z,2.20
2022-11-30T09:24:23.115Z,2.33
2022-11-30T09:26:49.899Z,2.00
2022-11-30T09:29:16.708Z,2.03
2022-11-30T09:31:43.616Z,2.50
2022-11-30T09:34:12.352Z,1.92
2022-11-30T09:36:39.525Z,2.13
2022-11-30T09:39:06.777Z,3.20
2022-11-30T09:41:36.990Z,3.00
2022-11-30T09:44:07.218Z,4.18
2022-11-30T09:46:42.548Z,3.92
2022-11-30T09:49:12.686Z,3.42
2022-11-30T09:51:49.607Z,4.10
2022-11-30T09:54:22.642Z,3.13
2022-11-30T09:56:50.532Z,3.28
2022-11-30T09:59:20.451Z,2.65
2022-11-30T10:01:51.983Z,2.58
2022-11-30T10:04:26.792Z,2.78
2022-11-30T10:07:12.695Z,2.97
2022-11-30T10:10:02.892Z,3.72
2022-11-30T10:12:57.904Z,3.90
2022-11-30T10:15:35.546Z,3.35
2022-11-30T10:18:21.154Z,2.45
2022-11-30T10:21:00.548Z,2.45
2022-11-30T10:23:33.518Z,2.55
2022-11-30T10:26:03.745Z,2.35
2022-11-30T10:28:46.985Z,2.95
2022-11-30T10:31:16.211Z,2.60
2022-11-30T10:33:55.043Z,2.90
2022-11-30T10:36:42.577Z,2.67
2022-11-30T10:39:31.397Z,2.38
2022-11-30T10:42:04.946Z,2.53
2022-11-30T10:44:36.383Z,3.40
2022-11-30T10:47:06.061Z,2.95
2022-11-30T10:49:33.888Z,3.47
2022-11-30T10:52:06.798Z,3.08
2022-11-30T10:54:35.887Z,3.00
2022-11-30T10:57:03.897Z,3.33
2022-11-30T10:59:45.758Z,2.67
2022-11-30T11:02:35.074Z,2.97
2022-11-30T11:05:09.627Z,2.70
2022-11-30T11:07:45.596Z,3.65
2022-11-30T11:10:32.994Z,3.47
2022-11-30T11:13:00.287Z,4.53
2022-11-30T11:15:31.725Z,4.82
2022-11-30T11:18:17.251Z,4.95
2022-11-30T11:20:44.744Z,5.00
2022-11-30T11:23:30.416Z,4.32
2022-11-30T11:25:57.828Z,5.28
2022-11-30T11:28:25.563Z,5.85
2022-11-30T11:30:55.066Z,5.28
2022-11-30T11:33:26.917Z,4.93
2022-11-30T11:36:13.308Z,5.57
2022-11-30T11:38:44.625Z,5.43
2022-11-30T11:41:23.367Z,7.88
2022-11-30T11:44:01.676Z,7.55
2022-11-30T11:46:30.564Z,6.30
2022-11-30T11:49:18.065Z,6.47
2022-11-30T11:51:45.755Z,5.85
2022-11-30T11:54:51.433Z,5.55
2022-11-30T11:57:21.479Z,4.43
2022-11-30T12:00:02.067Z,4.80
2022-11-30T12:02:39.260Z,5.20
2022-11-30T12:05:15.602Z,4.78
2022-11-30T12:07:52.433Z,4.60
2022-11-30T12:10:52.097Z,4.38
2022-11-30T12:13:33.198Z,4.40
2022-11-30T12:16:12.074Z,4.18
2022-11-30T12:19:17.552Z,4.15
2022-11-30T12:21:47.734Z,3.88
2022-11-30T12:24:33.780Z,4.38
2022-11-30T12:27:10.699Z,4.18
2022-11-30T12:29:56.436Z,4.32
2022-11-30T12:32:39.403Z,3.72
2022-11-30T12:35:32.790Z,3.10
2022-11-30T12:38:05.731Z,2.92
2022-11-30T12:40:35.998Z,2.60
2022-11-30T12:43:16.316Z,3.70
2022-11-30T12:45:44.968Z,4.60
2022-11-30T12:48:26.283Z,4.25
2022-11-30T12:51:04.812Z,3.80
2022-11-30T12:53:38.306Z,4.95
2022-11-30T12:56:39.229Z,5.68
2022-11-30T12:59:23.867Z,4.93
2022-11-30T13:02:14.730Z,5.22
2022-11-30T13:04:51.949Z,3.90
2022-11-30T13:07:29.653Z,3.70
2022-11-30T13:10:13.334Z,4.13
2022-11-30T13:12:47.721Z,4.22
2022-11-30T13:15:21.107Z,3.72
2022-11-30T13:17:49.787Z,4.28
2022-11-30T13:20:46.696Z,5.07
2022-11-30T13:23:41.676Z,5.72
2022-11-30T13:26:33.908Z,7.95
2022-11-30T13:29:24.737Z,6.22
2022-11-30T13:32:05.543Z,6.82
2022-11-30T13:34:35.645Z,5.53
2022-11-30T13:37:05.308Z,4.95
2022-11-30T13:39:55.400Z,5.50
2022-11-30T13:42:36.947Z,5.30
2022-11-30T13:45:12.780Z,5.93
2022-11-30T13:48:00.235Z,5.47
2022-11-30T13:50:33.025Z,4.47
2022-11-30T13:53:02.720Z,5.45
2022-11-30T13:55:48.179Z,5.43
2022-11-30T13:58:17.210Z,4.25
2022-11-30T14:01:03.703Z,3.95
2022-11-30T14:03:32.443Z,3.75
2022-11-30T14:06:01.745Z,3.20
2022-11-30T14:08:35.828Z,4.30
2022-11-30T14:11:29.386Z,3.40
2022-11-30T14:13:56.337Z,4.28
2022-11-30T14:16:27.533Z,4.50
2022-11-30T14:18:56.874Z,3.78
2022-11-30T14:21:33.521Z,3.50
2022-11-30T14:24:21.481Z,3.60
2022-11-30T14:26:51.439Z,3.75
2022-11-30T14:29:30.973Z,3.28
2022-11-30T14:32:03.010Z,2.95
2022-11-30T14:34:40.334Z,2.80
2022-11-30T14:37:14.125Z,3.30
2022-11-30T14:39:45.303Z,4.47
2022-11-30T14:42:32.246Z,4.20
2022-11-30T14:44:59.686Z,3.55
2022-11-30T14:47:29.650Z,4.70
2022-11-30T14:49:58.367Z,4.47
2022-11-30T14:52:52.051Z,4.25
2022-11-30T14:55:46.639Z,4.30
2022-11-30T14:58:46.178Z,3.38
2022-11-30T15:01:43.143Z,3.53
2022-11-30T15:04:18.746Z,3.63
2022-11-30T15:06:45.850Z,3.58
2022-11-30T15:09:19.164Z,6.22
2022-11-30T15:11:48.307Z,4.72
2022-11-30T15:14:15.524Z,2.92
2022-11-30T15:16:50.858Z,2.45
2022-11-30T15:19:22.822Z,2.30
2022-11-30T15:21:50.464Z,2.80
2022-11-30T15:24:17.877Z,2.38
2022-11-30T15:26:52.343Z,2.47
2022-11-30T15:29:33.346Z,2.50
2022-11-30T15:32:03.206Z,2.92
2022-11-30T15:34:47.333Z,3.75
2022-11-30T15:37:14.699Z,4.25
2022-11-30T15:39:48.034Z,3.28
2022-11-30T15:42:40.010Z,5.45
2022-11-30T15:45:25.712Z,4.60
2022-11-30T15:47:54.380Z,4.35
2022-11-30T15:50:26.853Z,3.85
2022-11-30T15:52:56.061Z,3.38
2022-11-30T15:55:42.434Z,3.83
2022-11-30T15:58:45.584Z,3.22
2022-11-30T16:01:17.136Z,2.97
2022-11-30T16:03:56.140Z,3.42
2022-11-30T16:06:27.089Z,3.47
2022-11-30T16:08:54.860Z,3.80
2022-11-30T16:11:22.008Z,3.10
2022-11-30T16:13:48.801Z,3.42
2022-11-30T16:16:30.157Z,4.25
2022-11-30T16:18:56.993Z,4.18
2022-11-30T16:21:23.839Z,3.80
2022-11-30T16:23:50.762Z,3.75
2022-11-30T16:29:05.745Z,3.15
2022-11-30T16:31:32.584Z,3.20
2022-11-30T16:33:59.441Z,2.60
2022-11-30T16:36:26.269Z,2.80
2022-11-30T16:38:53.880Z,2.42
2022-11-30T16:41:21.843Z,2.95
2022-11-30T16:43:51.035Z,3.60
2022-11-30T16:46:21.027Z,3.17
2022-11-30T16:48:48.813Z,3.40
2022-11-30T16:51:32.905Z,2.88
2022-11-30T16:53:59.628Z,2.80
2022-11-30T16:56:26.992Z,2.83
2022-11-30T16:58:54.097Z,2.60
2022-11-30T17:01:38.177Z,2.55
2022-11-30T17:04:15.934Z,2.88
2022-11-30T17:06:45.723Z,3.72
2022-11-30T17:09:16.663Z,3.38
2022-11-30T17:11:45.504Z,3.10
2022-11-30T17:14:14.212Z,2.63
2022-11-30T17:16:47.724Z,3.53
2022-11-30T17:19:14.544Z,3.78
2022-11-30T17:21:44.657Z,3.97
2022-11-30T17:24:12.450Z,2.97
2022-11-30T17:26:39.462Z,2.83
2022-11-30T17:29:06.488Z,3.33
2022-11-30T17:31:33.542Z,3.33
2022-11-30T17:34:01.072Z,3.92
2022-11-30T17:36:29.397Z,4.43
2022-11-30T17:38:56.767Z,4.20
2022-11-30T17:41:23.915Z,3.67
2022-11-30T17:43:52.012Z,3.05
2022-11-30T17:46:19.173Z,3.00
2022-11-30T17:48:46.622Z,2.97
2022-11-30T17:51:14.167Z,3.20
2022-11-30T17:53:42.707Z,3.55
2022-11-30T17:56:12.720Z,4.75
2022-11-30T17:58:43.747Z,4.50
2022-11-30T18:01:21.496Z,4.57
2022-11-30T18:03:48.463Z,4.55
2022-11-30T18:06:16.199Z,3.65
2022-11-30T18:08:43.451Z,4.00
2022-11-30T18:11:12.068Z,3.30
2022-11-30T18:13:40.108Z,4.07
2022-11-30T18:16:12.376Z,3.88
2022-11-30T18:18:44.252Z,3.70
2022-11-30T18:21:16.088Z,3.72
2022-11-30T18:23:42.839Z,3.28
2022-11-30T18:26:12.969Z,2.95
2022-11-30T18:28:40.373Z,3.60
2022-11-30T18:31:07.809Z,3.10
2022-11-30T18:33:36.339Z,3.20
2022-11-30T18:36:05.071Z,2.80
2022-11-30T18:38:37.262Z,3.38
2022-11-30T18:41:05.388Z,3.03
2022-11-30T18:43:33.475Z,2.63
2022-11-30T18:46:09.141Z,2.60
2022-11-30T18:48:37.283Z,2.70
2022-11-30T18:51:19.823Z,2.72
2022-11-30T18:53:46.943Z,2.60
2022-11-30T18:56:19.610Z,2.35
2022-11-30T18:58:47.826Z,2.40
2022-11-30T19:01:17.440Z,3.80
2022-11-30T19:03:51.005Z,3.83
2022-11-30T19:06:18.056Z,5.65
2022-11-30T19:08:45.802Z,4.53
2022-11-30T19:11:12.581Z,4.30
2022-11-30T19:13:39.571Z,3.72
2022-11-30T19:16:09.159Z,3.80
2022-11-30T19:18:36.692Z,4.80
2022-11-30T19:21:14.525Z,4.20
2022-11-30T19:23:41.357Z,4.38
2022-11-30T19:26:10.284Z,3.53
2022-11-30T19:28:38.696Z,4.18
2022-11-30T19:31:19.671Z,3.10
2022-11-30T19:33:49.206Z,4.38
2022-11-30T19:36:19.434Z,4.38
2022-11-30T19:38:46.904Z,6.65
2022-11-30T19:41:15.403Z,8.13
2022-11-30T19:43:47.807Z,6.32
2022-11-30T19:46:18.137Z,5.82
2022-11-30T19:48:45.326Z,6.55
2022-11-30T19:51:18.091Z,3.97
2022-11-30T19:53:45.488Z,3.40
2022-11-30T19:56:17.235Z,2.80
2022-11-30T19:58:46.081Z,2.40
2022-11-30T20:01:24.655Z,2.38
2022-11-30T20:03:53.888Z,2.13
2022-11-30T20:06:23.891Z,2.88
2022-11-30T20:08:50.708Z,1.88
2022-11-30T20:11:17.813Z,1.73
2022-11-30T20:13:46.090Z,1.85
2022-11-30T20:16:15.382Z,1.85
2022-11-30T20:18:46.299Z,1.90
2022-11-30T20:21:19.123Z,2.58
2022-11-30T20:23:47.856Z,2.38
2022-11-30T20:26:23.410Z,1.92
2022-11-30T20:28:51.598Z,2.08
2022-11-30T20:31:20.890Z,1.60
2022-11-30T20:33:48.246Z,1.52
2022-11-30T20:36:16.267Z,1.80
2022-11-30T20:38:43.654Z,2.05
2022-11-30T20:41:13.456Z,2.00
2022-11-30T20:43:41.144Z,1.80
2022-11-30T20:46:28.855Z,1.20
2022-11-30T20:48:56.489Z,1.88
2022-11-30T20:51:31.190Z,1.48
2022-11-30T20:54:06.748Z,1.67
2022-11-30T20:56:36.571Z,1.55
2022-11-30T20:59:06.578Z,1.52
2022-11-30T21:01:34.392Z,1.85
2022-11-30T21:04:01.806Z,2.00
2022-11-30T21:06:31.143Z,2.33
2022-11-30T21:08:58.723Z,1.95
2022-11-30T21:11:26.739Z,1.98
2022-11-30T21:13:53.643Z,1.50
2022-11-30T21:16:27.627Z,1.85
2022-11-30T21:18:55.129Z,1.65
2022-11-30T21:21:24.545Z,2.20
2022-11-30T21:23:52.278Z,2.50
2022-11-30T21:26:22.472Z,3.28
2022-11-30T21:28:53.203Z,4.55
2022-11-30T21:31:21.202Z,4.30
2022-11-30T21:33:52.716Z,3.88
2022-11-30T21:36:21.875Z,3.95
2022-11-30T21:39:04.477Z,3.05
2022-11-30T21:41:33.847Z,2.42
2022-11-30T21:44:00.676Z,2.53
2022-11-30T21:46:27.548Z,2.75
2022-11-30T21:48:54.411Z,2.47
2022-11-30T21:51:24.512Z,2.53
2022-11-30T21:53:54.692Z,3.30
2022-11-30T21:56:33.645Z,2.80
2022-11-30T21:59:01.529Z,3.38
2022-11-30T22:01:40.342Z,3.15
2022-11-30T22:04:09.759Z,3.03
2022-11-30T22:06:38.423Z,2.28
2022-11-30T22:09:10.565Z,1.92
2022-11-30T22:11:42.085Z,1.92
2022-11-30T22:14:15.916Z,1.88
2022-11-30T22:16:43.235Z,2.15
2022-11-30T22:19:10.297Z,1.70
2022-11-30T22:21:37.370Z,1.65
2022-11-30T22:24:07.426Z,1.27
2022-11-30T22:26:39.324Z,1.50
2022-11-30T22:29:17.666Z,1.48
2022-11-30T22:31:46.786Z,1.88
2022-11-30T22:34:13.979Z,1.20
2022-11-30T22:36:42.593Z,1.67
2022-11-30T22:39:13.941Z,1.48
2022-11-30T22:41:42.490Z,1.25
2022-11-30T22:44:13.461Z,1.30
2022-11-30T22:46:40.501Z,1.10
2022-11-30T22:49:09.487Z,1.30
2022-11-30T22:51:38.121Z,1.45
2022-11-30T22:54:05.972Z,1.42
2022-11-30T22:56:38.116Z,1.40
2022-11-30T22:59:06.318Z,1.23
2022-11-30T23:01:39.041Z,1.50
2022-11-30T23:04:09.349Z,1.75
2022-11-30T23:06:37.199Z,2.00
2022-11-30T23:09:06.289Z,1.88
2022-11-30T23:11:33.382Z,2.50
2022-11-30T23:14:01.810Z,2.42
2022-11-30T23:16:28.850Z,2.50
2022-11-30T23:19:00.296Z,2.17
2022-11-30T23:21:30.284Z,2.10
2022-11-30T23:24:00.322Z,2.00
2022-11-30T23:26:33.124Z,1.80
2022-11-30T23:29:03.243Z,2.25
2022-11-30T23:31:35.111Z,1.92
2022-11-30T23:34:04.361Z,2.00
2022-11-30T23:36:31.933Z,1.85
2022-11-30T23:39:01.291Z,1.40
2022-11-30T23:41:28.205Z,1.20
2022-11-30T23:43:55.546Z,1.55
2022-11-30T23:46:22.743Z,1.35
2022-11-30T23:48:49.872Z,1.40
2022-11-30T23:51:16.898Z,1.45
2022-11-30T23:53:44.004Z,1.33
2022-11-30T23:56:14.636Z,2.15
2022-11-30T23:58:42.033Z,1.90
